• Join FlightAware (Why Join?)
  • Login
  • US Flag 
12:41AM EDT


 

Airport Tracker/Info


-or-


 

Live Flight TrackerFlight Track Log ✈ FLG3861 ✈ 06-Nov-2013 ✈ KDTW - KBGM

Flight Track Log - Related Links

Times and Time Zones

All times are in EST time to prevent confusion due to time zone crossing. See the FLG3861 flight status page for this flight to view local times or setup timezone preferences in your user account.

Time Position Orientation Groundspeed Altitude Reporting Facility
EST Latitude Longitude Course Direction KTS MPH feet Rate Location/Type
09:48PM 42.2061 -83.3672 180° South 162 186 1,500  Level Cleveland Center
09:49PM 42.1642 -83.3669 180° South 215 247 3,700 2,520 Climbing Cleveland Center
09:50PM 42.1264 -83.3597 172° South 212 244 5,300 2,880 Climbing Cleveland Center
09:50PM 42.1006 -83.3494 164° South 253 291 6,600 2,640 Climbing Cleveland Center
09:51PM 42.0742 -83.2867 120° Southeast 288 331 8,000 2,160 Climbing Cleveland Center
09:52PM 42.1128 -83.1625 67° East 345 397 10,400 1,860 Climbing Cleveland Center
09:53PM 42.1583 -83.0350 64° Northeast 379 436 11,900 1,500 Climbing Cleveland Center
09:54PM 42.2081 -82.8986 64° Northeast 405 466 13,500 1,740 Climbing Cleveland Center
09:55PM 42.2594 -82.7553 64° Northeast 425 489 15,500 1,680 Climbing Cleveland Center
09:56PM 42.3108 -82.6108 64° Northeast 428 493 17,000 1,500 Climbing Cleveland Center
09:57PM 42.3678 -82.4253 67° East 449 517 18,600 1,260 Climbing Cleveland Center
09:58PM 42.3600 -82.2603 94° East 442 509 19,600 960 Climbing Cleveland Center
09:59PM 42.3525 -82.0853 93° East 444 511 20,600 1,020 Climbing Cleveland Center
10:00PM 42.3458 -81.9128 93° East 452 520 21,700 1,020 Climbing Cleveland Center
10:01PM 42.3381 -81.7439 94° East 448 516 22,700 960 Climbing Cleveland Center
10:02PM 42.3297 -81.5736 94° East 449 517 23,700 960 Climbing Cleveland Center
10:03PM 42.3208 -81.4019 94° East 451 519 24,700 780 Climbing Cleveland Center
10:04PM 42.3128 -81.2269 94° East 458 527 25,400 540 Climbing Cleveland Center
10:05PM 42.3036 -81.0483 94° East 468 539 25,900 480 Climbing Cleveland Center
10:06PM 42.2939 -80.8639 94° East 482 555 26,500 480 Climbing Cleveland Center
10:07PM 42.2850 -80.6783 94° East 489 563 26,900 240 Climbing Cleveland Center
10:08PM 42.2747 -80.4908 94° East 493 567 27,000  Climbing Cleveland Center
10:09PM 42.2636 -80.2942 94° East 515 593 27,000  Level Cleveland Center
10:10PM 42.2508 -80.0931 95° East 530 610 27,000  Level Cleveland Center
10:11PM 42.2378 -79.8861 95° East 539 620 27,000  Level Cleveland Center
10:12PM 42.2297 -79.6825 93° East 546 628 27,000  Level Cleveland Center
10:13PM 42.2317 -79.4733 89° East 558 642 27,000  Level Cleveland Center
10:14PM 42.2328 -79.2636 90° East 560 644 27,000  Level Cleveland Center
10:15PM 42.2344 -79.0125 89° East 560 644 27,000  Level Cleveland Center
10:16PM 42.2353 -78.8297 90° East 554 638 27,000  Level Cleveland Center
10:17PM 42.2353 -78.6250 90° East 551 634 27,000  Level Cleveland Center
10:18PM 42.2358 -78.3792 90° East 550 633 27,000  Level Cleveland Center
10:19PM 42.2356 -78.1739 90° East 550 633 27,000  Level Cleveland Center
10:20PM 42.2347 -77.9719 90° East 546 628 27,000 -240 Level Cleveland Center
10:22PM 42.2328 -77.7692 91° East 548 631 26,600 -1,020 Descending Cleveland Center
10:23PM 42.2314 -77.5739 90° East 532 612 25,000 -1,920 Descending Cleveland Center
10:24PM 42.2303 -77.4092 90° East 454 522 22,800 -2,340 Descending Cleveland Center
10:25PM 42.2286 -77.2450 91° East 443 510 20,300 -2,700 Descending Cleveland Center
10:25PM 42.2269 -77.1111 91° East 445 512 18,300 -6,900 Descending New York Center
10:26PM 42.2267 -76.9542 90° East 430 495 9,000 -2,880 Descending New York Center
10:27PM 42.2222 -76.7997 92° East 419 482 12,600 540 Climbing New York Center
10:28PM 42.2203 -76.6733 91° East 398 458 10,100 -1,800 Descending New York Center
10:29PM 42.2181 -76.5472 91° East 366 421 9,000 -600 Descending New York Center
10:30PM 42.2156 -76.4267 92° East 336 387 9,000 -720 Level New York Center
10:31PM 42.2375 -76.3108 76° East 319 367 7,600 -1,800 Descending New York Center
10:32PM 42.2617 -76.1981 74° East 314 361 5,400 -1,800 Descending New York Center
10:33PM 42.2894 -76.0883 71° East 308 354 4,000 -1,200 Descending New York Center
10:34PM 42.2650 -76.0275 118° Southeast 248 285 3,100 -900 Descending New York Center
10:35PM 42.2356 -75.9886 136° Southeast 157 181 2,300 -840 Descending New York Center